createdAt,value
2022-12-18T00:02:04.951Z,22.10
2022-12-18T00:04:35.801Z,25.87
2022-12-18T00:07:03.077Z,22.90
2022-12-18T00:09:41.394Z,20.97
2022-12-18T00:14:52.335Z,19.73
2022-12-18T00:17:20.644Z,21.83
2022-12-18T00:19:47.910Z,24.37
2022-12-18T00:22:19.284Z,24.17
2022-12-18T00:24:59.459Z,20.70
2022-12-18T00:27:36.850Z,25.43
2022-12-18T00:30:06.325Z,20.87
2022-12-18T00:32:34.344Z,23.67
2022-12-18T00:35:02.979Z,23.93
2022-12-18T00:37:37.598Z,23.13
2022-12-18T00:40:06.269Z,17.67
2022-12-18T00:42:51.938Z,20.30
2022-12-18T00:45:21.184Z,16.97
2022-12-18T00:47:48.443Z,22.07
2022-12-18T00:50:20.709Z,19.60
2022-12-18T00:52:49.146Z,20.67
2022-12-18T00:55:18.224Z,18.23
2022-12-18T00:57:58.067Z,20.77
2022-12-18T01:00:25.313Z,19.87
2022-12-18T01:02:52.659Z,19.97
2022-12-18T01:05:21.140Z,23.83
2022-12-18T01:08:01.434Z,17.90
2022-12-18T01:10:28.825Z,19.87
2022-12-18T01:12:58.569Z,22.67
2022-12-18T01:15:29.949Z,20.33
2022-12-18T01:17:58.298Z,20.13
2022-12-18T01:20:29.065Z,20.37
2022-12-18T01:22:59.487Z,23.43
2022-12-18T01:25:41.164Z,24.47
2022-12-18T01:28:12.886Z,22.57
2022-12-18T01:31:26.778Z,21.40
2022-12-18T01:33:56.321Z,18.23
2022-12-18T01:36:36.778Z,18.97
2022-12-18T01:39:13.162Z,21.60
2022-12-18T01:42:02.793Z,19.77
2022-12-18T01:45:08.193Z,18.53
2022-12-18T01:48:13.708Z,18.73
2022-12-18T01:50:44.615Z,18.90
2022-12-18T01:53:18.318Z,21.43
2022-12-18T01:55:57.332Z,24.43
2022-12-18T01:58:33.807Z,24.43
2022-12-18T02:01:01.128Z,21.00
2022-12-18T02:03:30.528Z,21.00
2022-12-18T02:05:59.767Z,21.80
2022-12-18T02:09:05.385Z,23.03
2022-12-18T02:12:11.279Z,22.77
2022-12-18T02:15:00.413Z,24.43
2022-12-18T02:17:53.586Z,23.10
2022-12-18T02:20:36.358Z,23.47
2022-12-18T02:23:41.816Z,23.73
2022-12-18T02:26:30.273Z,26.07
2022-12-18T02:29:30.493Z,22.57
2022-12-18T02:32:04.028Z,27.30
2022-12-18T02:34:37.299Z,24.23
2022-12-18T02:37:16.074Z,20.33
2022-12-18T02:39:47.738Z,19.73
2022-12-18T02:42:20.627Z,28.27
2022-12-18T02:44:53.002Z,25.33
2022-12-18T02:47:40.718Z,23.87
2022-12-18T02:50:35.402Z,24.47
2022-12-18T02:53:15.537Z,25.80
2022-12-18T02:55:51.838Z,28.83
2022-12-18T02:58:43.372Z,27.93
2022-12-18T03:01:32.421Z,28.07
2022-12-18T03:04:22.748Z,24.13
2022-12-18T03:06:55.899Z,29.03
2022-12-18T03:09:36.874Z,25.53
2022-12-18T03:12:31.839Z,25.50
2022-12-18T03:15:17.806Z,27.47
2022-12-18T03:17:59.273Z,22.53
2022-12-18T03:20:32.511Z,34.27
2022-12-18T03:23:14.331Z,30.87
2022-12-18T03:26:07.682Z,26.60
2022-12-18T03:28:43.678Z,31.43
2022-12-18T03:31:25.085Z,25.40
2022-12-18T03:33:58.910Z,30.00
2022-12-18T03:36:45.165Z,32.27
2022-12-18T03:39:14.068Z,29.37
2022-12-18T03:42:16.821Z,28.33
2022-12-18T03:45:13.824Z,30.33
2022-12-18T03:48:09.838Z,25.57
2022-12-18T03:51:09.319Z,27.67
2022-12-18T03:54:15.903Z,23.13
2022-12-18T03:56:59.531Z,24.80
2022-12-18T03:59:32.649Z,27.27
2022-12-18T04:02:05.374Z,26.33
2022-12-18T04:04:53.601Z,31.33
2022-12-18T04:07:23.160Z,23.83
2022-12-18T04:09:53.855Z,25.63
2022-12-18T04:12:27.246Z,24.33
2022-12-18T04:14:56.678Z,27.73
2022-12-18T04:17:26.135Z,27.43
2022-12-18T04:19:56.181Z,23.53
2022-12-18T04:22:25.148Z,30.37
2022-12-18T04:24:58.754Z,32.00
2022-12-18T04:27:35.668Z,35.10
2022-12-18T04:30:07.284Z,31.17
2022-12-18T04:32:37.623Z,29.43
2022-12-18T04:35:07.922Z,26.70
2022-12-18T04:37:37.664Z,30.93
2022-12-18T04:40:07.023Z,48.70
2022-12-18T04:42:45.089Z,138.70
2022-12-18T04:45:24.503Z,81.70
2022-12-18T04:47:52.709Z,36.30
2022-12-18T04:50:21.006Z,29.90
2022-12-18T04:52:49.316Z,30.10
2022-12-18T04:55:27.134Z,32.37
2022-12-18T04:57:55.504Z,38.57
2022-12-18T05:00:27.491Z,27.80
2022-12-18T05:03:03.705Z,33.20
2022-12-18T05:05:31.263Z,36.03
2022-12-18T05:08:08.610Z,45.03
2022-12-18T05:10:38.261Z,38.10
2022-12-18T05:13:05.845Z,40.57
2022-12-18T05:15:37.174Z,30.63
2022-12-18T05:18:17.395Z,33.50
2022-12-18T05:20:44.666Z,29.37
2022-12-18T05:23:17.280Z,28.00
2022-12-18T05:25:53.044Z,28.57
2022-12-18T05:28:24.190Z,29.47
2022-12-18T05:30:53.118Z,27.80
2022-12-18T05:33:26.243Z,47.77
2022-12-18T05:35:59.497Z,40.67
2022-12-18T05:38:30.144Z,60.03
2022-12-18T05:40:59.158Z,35.80
2022-12-18T05:43:28.927Z,36.70
2022-12-18T05:45:57.267Z,31.97
2022-12-18T05:48:26.478Z,31.47
2022-12-18T05:50:54.698Z,32.17
2022-12-18T05:53:28.995Z,31.57
2022-12-18T05:56:01.314Z,31.43
2022-12-18T05:58:33.767Z,34.93
2022-12-18T06:01:14.855Z,33.83
2022-12-18T06:03:42.559Z,39.67
2022-12-18T06:06:23.900Z,53.57
2022-12-18T06:09:02.517Z,42.43
2022-12-18T06:11:30.969Z,31.13
2022-12-18T06:14:00.300Z,40.60
2022-12-18T06:16:34.207Z,35.50
2022-12-18T06:19:04.887Z,38.93
2022-12-18T06:21:33.429Z,30.37
2022-12-18T06:24:05.261Z,36.87
2022-12-18T06:26:40.036Z,34.27
2022-12-18T06:29:08.389Z,36.27
2022-12-18T06:31:35.653Z,32.37
2022-12-18T06:34:14.268Z,31.70
2022-12-18T06:36:41.609Z,33.60
2022-12-18T06:39:08.847Z,40.20
2022-12-18T06:41:38.747Z,34.67
2022-12-18T06:44:07.793Z,36.70
2022-12-18T06:46:35.017Z,36.23
2022-12-18T06:49:05.562Z,29.03
2022-12-18T06:51:33.893Z,33.00
2022-12-18T06:54:02.529Z,34.73
2022-12-18T06:56:32.263Z,37.17
2022-12-18T06:59:00.500Z,34.40
2022-12-18T07:01:27.801Z,35.97
2022-12-18T07:03:58.663Z,39.07
2022-12-18T07:06:27.579Z,38.77
2022-12-18T07:08:55.897Z,46.90
2022-12-18T07:11:24.037Z,240.40
2022-12-18T07:13:51.269Z,58.40
2022-12-18T07:16:24.767Z,48.43
2022-12-18T07:18:53.991Z,40.80
2022-12-18T07:21:21.791Z,39.20
2022-12-18T07:23:51.843Z,47.33
2022-12-18T07:26:21.328Z,37.73
2022-12-18T07:28:50.072Z,35.67
2022-12-18T07:31:22.028Z,33.30
2022-12-18T07:33:49.943Z,38.80
2022-12-18T07:36:18.193Z,39.73
2022-12-18T07:38:57.374Z,35.17
2022-12-18T07:41:24.604Z,42.10
2022-12-18T07:43:52.806Z,44.13
2022-12-18T07:46:20.242Z,55.17
2022-12-18T07:48:49.717Z,51.53
2022-12-18T07:51:34.040Z,64.70
2022-12-18T07:54:01.404Z,63.43
2022-12-18T07:56:33.067Z,47.97
2022-12-18T07:59:05.338Z,53.63
2022-12-18T08:01:46.677Z,56.90
2022-12-18T08:04:14.261Z,56.10
2022-12-18T08:06:47.433Z,49.67
2022-12-18T08:09:15.462Z,47.37
2022-12-18T08:11:42.572Z,50.40
2022-12-18T08:14:12.123Z,50.27
2022-12-18T08:16:40.774Z,45.87
2022-12-18T08:19:08.074Z,48.63
2022-12-18T08:21:35.334Z,49.10
2022-12-18T08:24:29.360Z,51.30
2022-12-18T08:27:21.240Z,43.90
2022-12-18T08:29:45.874Z,45.60
2022-12-18T08:32:17.133Z,52.47
2022-12-18T08:34:44.464Z,53.67
2022-12-18T08:37:11.708Z,45.67
2022-12-18T08:39:38.953Z,45.97
2022-12-18T08:42:24.651Z,38.00
2022-12-18T08:45:12.247Z,39.23
2022-12-18T08:47:40.761Z,48.87
2022-12-18T08:50:08.807Z,41.73
2022-12-18T08:52:39.521Z,47.33
2022-12-18T08:55:07.898Z,40.50
2022-12-18T08:57:36.372Z,43.90
2022-12-18T09:00:35.435Z,43.37
2022-12-18T09:03:03.543Z,42.53
2022-12-18T09:05:51.309Z,44.43
2022-12-18T09:08:18.474Z,48.17
2022-12-18T09:10:47.985Z,39.07
2022-12-18T09:13:16.878Z,50.43
2022-12-18T09:15:56.373Z,47.80
2022-12-18T09:18:26.055Z,51.87
2022-12-18T09:20:54.239Z,54.27
2022-12-18T09:23:23.084Z,47.47
2022-12-18T09:25:50.299Z,53.37
2022-12-18T09:28:20.091Z,41.80
2022-12-18T09:30:50.632Z,38.90
2022-12-18T09:33:19.237Z,53.80
2022-12-18T09:35:47.580Z,35.63
2022-12-18T09:38:19.841Z,38.00
2022-12-18T09:40:50.258Z,31.80
2022-12-18T09:43:25.963Z,30.10
2022-12-18T09:45:59.469Z,30.57
2022-12-18T09:48:32.847Z,36.90
2022-12-18T09:51:12.809Z,32.43
2022-12-18T09:53:59.045Z,31.67
2022-12-18T09:56:29.660Z,37.13
2022-12-18T09:59:06.053Z,32.90
2022-12-18T10:01:43.157Z,31.30
2022-12-18T10:04:12.677Z,93.23
2022-12-18T10:07:09.404Z,37.27
2022-12-18T10:10:03.361Z,34.07
2022-12-18T10:12:46.487Z,35.17
2022-12-18T10:15:32.515Z,35.37
2022-12-18T10:18:04.816Z,33.80
2022-12-18T10:20:57.788Z,39.20
2022-12-18T10:23:44.937Z,78.43
2022-12-18T10:26:19.315Z,56.67
2022-12-18T10:28:47.294Z,47.23
2022-12-18T10:31:24.203Z,35.20
2022-12-18T10:34:04.635Z,36.20
2022-12-18T10:36:33.776Z,41.13
2022-12-18T10:39:24.386Z,45.73
2022-12-18T10:42:10.153Z,48.77
2022-12-18T10:45:16.379Z,59.20
2022-12-18T10:47:51.336Z,41.80
2022-12-18T10:53:30.124Z,33.97
2022-12-18T10:56:07.581Z,48.47
2022-12-18T10:58:37.660Z,40.50
2022-12-18T11:01:14.111Z,38.27
2022-12-18T11:04:09.873Z,33.57
2022-12-18T11:07:01.080Z,37.23
2022-12-18T11:09:40.739Z,37.37
2022-12-18T11:12:20.699Z,41.40
2022-12-18T11:14:54.920Z,36.23
2022-12-18T11:17:31.654Z,41.53
2022-12-18T11:20:02.183Z,47.17
2022-12-18T11:22:34.570Z,37.93
2022-12-18T11:25:33.225Z,41.20
2022-12-18T11:28:05.360Z,38.50
2022-12-18T11:30:35.530Z,39.90
2022-12-18T11:33:05.479Z,35.83
2022-12-18T11:35:55.862Z,41.23
2022-12-18T11:38:46.941Z,37.50
2022-12-18T11:41:23.890Z,39.10
2022-12-18T11:44:12.676Z,37.90
2022-12-18T11:46:48.044Z,37.37
2022-12-18T11:49:51.286Z,36.73
2022-12-18T11:52:32.214Z,42.87
2022-12-18T11:55:16.507Z,43.57
2022-12-18T11:58:04.493Z,37.80
2022-12-18T12:01:12.053Z,41.30
2022-12-18T12:04:13.521Z,38.03
2022-12-18T12:07:05.233Z,39.50
2022-12-18T12:09:35.530Z,41.83
2022-12-18T12:12:21.912Z,38.90
2022-12-18T12:15:11.510Z,41.13
2022-12-18T12:17:51.025Z,38.10
2022-12-18T12:20:39.306Z,39.93
2022-12-18T12:23:29.290Z,37.43
2022-12-18T12:25:56.511Z,37.13
2022-12-18T12:28:49.887Z,37.10
2022-12-18T12:31:53.592Z,38.03
2022-12-18T12:35:09.698Z,42.73
2022-12-18T12:37:55.434Z,40.17
2022-12-18T12:43:33.734Z,41.20
2022-12-18T12:46:13.907Z,42.43
2022-12-18T12:49:10.743Z,41.50
2022-12-18T12:51:42.119Z,42.17
2022-12-18T12:54:22.582Z,38.43
2022-12-18T12:57:18.953Z,44.90
2022-12-18T13:00:07.689Z,43.63
2022-12-18T13:02:57.769Z,43.97
2022-12-18T13:05:49.618Z,39.60
2022-12-18T13:09:01.262Z,43.00
2022-12-18T13:12:00.036Z,48.17
2022-12-18T13:14:31.453Z,41.77
2022-12-18T13:17:22.369Z,41.57
2022-12-18T13:20:05.636Z,38.97
2022-12-18T13:22:44.382Z,39.30
2022-12-18T13:25:35.935Z,44.07
2022-12-18T13:28:34.631Z,40.93
2022-12-18T13:31:04.131Z,45.87
2022-12-18T13:33:56.336Z,40.50
2022-12-18T13:36:52.037Z,44.13
2022-12-18T13:43:13.643Z,48.83
2022-12-18T13:46:22.174Z,44.73
2022-12-18T13:49:00.608Z,45.23
2022-12-18T13:55:53.341Z,43.27
2022-12-18T13:59:00.317Z,92.83
2022-12-18T14:01:55.736Z,45.97
2022-12-18T14:04:49.876Z,40.97
2022-12-18T14:07:25.324Z,44.67
2022-12-18T14:10:54.582Z,45.30
2022-12-18T14:13:32.110Z,41.50
2022-12-18T14:16:20.021Z,42.73
2022-12-18T14:19:06.099Z,41.30
2022-12-18T14:21:50.873Z,39.80
2022-12-18T14:24:22.866Z,40.00
2022-12-18T14:27:22.361Z,40.53
2022-12-18T14:29:51.905Z,37.63
2022-12-18T14:32:20.747Z,40.37
2022-12-18T14:35:50.561Z,46.90
2022-12-18T14:39:21.571Z,42.20
2022-12-18T14:42:22.530Z,43.70
2022-12-18T14:45:12.896Z,40.80
2022-12-18T14:48:21.699Z,40.30
2022-12-18T14:54:40.882Z,42.90
2022-12-18T14:57:24.527Z,38.33
2022-12-18T15:00:08.998Z,41.40
2022-12-18T15:03:29.287Z,37.47
2022-12-18T15:06:27.588Z,41.10
2022-12-18T15:09:31.071Z,40.03
2022-12-18T15:12:37.860Z,40.40
2022-12-18T15:15:34.478Z,36.83
2022-12-18T15:18:22.252Z,40.93
2022-12-18T15:21:03.437Z,38.13
2022-12-18T15:24:09.197Z,35.07
2022-12-18T15:26:39.797Z,39.60
2022-12-18T15:29:22.009Z,37.17
2022-12-18T15:32:01.836Z,39.67
2022-12-18T15:34:30.598Z,41.63
2022-12-18T15:36:59.926Z,37.30
2022-12-18T15:39:28.352Z,40.80
2022-12-18T15:42:14.074Z,35.60
2022-12-18T15:45:07.344Z,36.40
2022-12-18T15:47:34.711Z,35.60
2022-12-18T15:50:41.053Z,38.20
2022-12-18T15:53:34.796Z,39.50
2022-12-18T15:56:24.341Z,36.60
2022-12-18T15:58:52.538Z,43.63
2022-12-18T16:01:26.734Z,42.13
2022-12-18T16:03:55.135Z,43.27
2022-12-18T16:06:24.496Z,41.23
2022-12-18T16:08:51.832Z,42.87
2022-12-18T16:11:40.175Z,42.60
2022-12-18T16:14:27.740Z,37.30
2022-12-18T16:17:00.568Z,38.10
2022-12-18T16:19:29.777Z,40.00
2022-12-18T16:21:59.827Z,36.60
2022-12-18T16:24:32.325Z,39.20
2022-12-18T16:27:06.694Z,40.63
2022-12-18T16:29:34.762Z,36.43
2022-12-18T16:32:22.128Z,39.43
2022-12-18T16:34:50.791Z,36.97
2022-12-18T16:37:19.088Z,34.83
2022-12-18T16:39:51.398Z,34.07
2022-12-18T16:42:21.474Z,34.90
2022-12-18T16:44:50.807Z,33.13
2022-12-18T16:47:19.724Z,35.67
2022-12-18T16:49:47.239Z,35.20
2022-12-18T16:52:15.252Z,36.33
2022-12-18T16:54:52.590Z,37.20
2022-12-18T16:57:21.181Z,54.47
2022-12-18T17:00:06.363Z,54.33
2022-12-18T17:02:35.592Z,43.17
2022-12-18T17:05:25.702Z,42.47
2022-12-18T17:07:53.975Z,45.10
2022-12-18T17:10:51.239Z,45.27
2022-12-18T17:13:22.713Z,42.27
2022-12-18T17:15:54.294Z,38.37
2022-12-18T17:18:23.661Z,37.23
2022-12-18T17:21:09.657Z,41.57
2022-12-18T17:23:38.062Z,39.80
2022-12-18T17:26:07.394Z,40.60
2022-12-18T17:28:35.552Z,37.87
2022-12-18T17:31:29.620Z,40.57
2022-12-18T17:34:04.660Z,42.33
2022-12-18T17:36:33.297Z,40.93
2022-12-18T17:39:07.061Z,39.97
2022-12-18T17:41:38.426Z,43.40
2022-12-18T17:44:06.877Z,41.30
2022-12-18T17:46:35.115Z,42.70
2022-12-18T17:49:22.633Z,44.27
2022-12-18T17:51:51.717Z,45.63
2022-12-18T17:54:20.055Z,49.00
2022-12-18T17:56:48.295Z,46.57
2022-12-18T17:59:17.720Z,48.73
2022-12-18T18:01:47.444Z,52.53
2022-12-18T18:04:24.111Z,48.63
2022-12-18T18:06:52.357Z,40.10
2022-12-18T18:09:20.523Z,44.17
2022-12-18T18:12:13.573Z,41.50
2022-12-18T18:14:42.021Z,46.30
2022-12-18T18:17:11.276Z,43.53
2022-12-18T18:19:58.712Z,37.47
2022-12-18T18:22:27.199Z,40.73
2022-12-18T18:24:54.786Z,44.70
2022-12-18T18:27:38.720Z,43.33
2022-12-18T18:30:11.453Z,45.57
2022-12-18T18:32:40.411Z,41.77
2022-12-18T18:35:15.704Z,70.93
2022-12-18T18:37:56.605Z,59.00
2022-12-18T18:40:35.771Z,66.27
2022-12-18T18:43:06.417Z,50.57
2022-12-18T18:45:43.292Z,51.87
2022-12-18T18:48:14.243Z,54.67
2022-12-18T18:50:44.193Z,51.73
2022-12-18T18:53:13.417Z,49.43
2022-12-18T18:56:04.021Z,50.37
2022-12-18T18:59:05.967Z,47.53
2022-12-18T19:01:34.522Z,51.03
2022-12-18T19:04:03.151Z,55.83
2022-12-18T19:06:33.628Z,50.10
2022-12-18T19:09:09.074Z,53.67
2022-12-18T19:11:57.598Z,50.43
2022-12-18T19:14:26.073Z,50.37
2022-12-18T19:16:54.459Z,50.10
2022-12-18T19:19:39.373Z,58.00
2022-12-18T19:22:07.862Z,54.60
2022-12-18T19:24:36.095Z,54.53
2022-12-18T19:27:06.333Z,54.07
2022-12-18T19:29:34.671Z,50.87
2022-12-18T19:32:05.565Z,57.00
2022-12-18T19:34:39.114Z,56.53
2022-12-18T19:37:07.301Z,58.67
2022-12-18T19:39:36.884Z,53.07
2022-12-18T19:42:04.333Z,55.73
2022-12-18T19:44:31.459Z,64.87
2022-12-18T19:46:58.649Z,65.87
2022-12-18T19:49:27.007Z,63.10
2022-12-18T19:52:30.101Z,55.67
2022-12-18T19:54:59.456Z,54.10
2022-12-18T19:57:32.423Z,55.43
2022-12-18T20:00:00.620Z,54.37
2022-12-18T20:02:42.026Z,58.80
2022-12-18T20:05:15.205Z,54.80
2022-12-18T20:07:43.885Z,56.67
2022-12-18T20:10:15.145Z,54.30
2022-12-18T20:12:51.231Z,60.67
2022-12-18T20:15:18.614Z,53.57
2022-12-18T20:17:45.933Z,55.63
2022-12-18T20:20:16.774Z,58.23
2022-12-18T20:22:45.467Z,57.40
2022-12-18T20:25:15.260Z,58.53
2022-12-18T20:27:50.652Z,53.97
2022-12-18T20:30:28.508Z,55.20
2022-12-18T20:33:00.516Z,54.43
2022-12-18T20:35:47.374Z,49.10
2022-12-18T20:38:14.872Z,54.87
2022-12-18T20:40:56.202Z,49.20
2022-12-18T20:43:25.187Z,53.60
2022-12-18T20:46:02.072Z,58.00
2022-12-18T20:48:30.934Z,49.33
2022-12-18T20:51:14.814Z,52.23
2022-12-18T20:53:42.654Z,55.87
2022-12-18T20:56:21.813Z,52.63
2022-12-18T20:58:50.898Z,48.37
2022-12-18T21:01:48.956Z,58.57
2022-12-18T21:04:19.524Z,55.33
2022-12-18T21:06:54.098Z,56.37
2022-12-18T21:09:27.891Z,56.30
2022-12-18T21:12:18.058Z,58.37
2022-12-18T21:14:46.367Z,58.43
2022-12-18T21:17:15.009Z,54.00
2022-12-18T21:19:48.442Z,55.37
2022-12-18T21:22:19.627Z,55.47
2022-12-18T21:24:47.209Z,57.57
2022-12-18T21:27:17.837Z,54.80
2022-12-18T21:29:52.664Z,54.90
2022-12-18T21:32:20.314Z,57.77
2022-12-18T21:34:48.590Z,57.07
2022-12-18T21:37:17.017Z,59.53
2022-12-18T21:39:47.473Z,58.03
2022-12-18T21:42:34.236Z,58.17
2022-12-18T21:45:06.035Z,63.33
2022-12-18T21:47:43.716Z,65.37
2022-12-18T21:50:13.006Z,62.23
2022-12-18T21:53:22.019Z,62.17
2022-12-18T21:56:00.171Z,64.13
2022-12-18T21:58:28.518Z,66.23
2022-12-18T22:00:56.837Z,67.93
2022-12-18T22:03:43.214Z,68.00
2022-12-18T22:06:49.720Z,65.37
2022-12-18T22:09:22.266Z,62.33
2022-12-18T22:11:54.089Z,72.93
2022-12-18T22:15:21.581Z,67.77
2022-12-18T22:17:54.418Z,68.40
2022-12-18T22:20:33.139Z,70.97
2022-12-18T22:23:38.559Z,73.90
2022-12-18T22:26:10.928Z,77.90
2022-12-18T22:29:33.903Z,71.40
2022-12-18T22:32:03.590Z,75.30
2022-12-18T22:34:36.509Z,70.27
2022-12-18T22:37:06.910Z,75.50
2022-12-18T22:39:41.334Z,74.67
2022-12-18T22:43:05.344Z,75.37
2022-12-18T22:45:35.118Z,74.00
2022-12-18T22:48:08.010Z,73.77
2022-12-18T22:50:36.139Z,70.20
2022-12-18T22:53:04.472Z,70.30
2022-12-18T22:55:40.872Z,74.07
2022-12-18T22:58:08.244Z,69.93
2022-12-18T23:00:41.008Z,70.80
2022-12-18T23:03:12.425Z,64.73
2022-12-18T23:05:40.999Z,72.37
2022-12-18T23:08:13.247Z,68.87
2022-12-18T23:10:41.564Z,73.33
2022-12-18T23:13:09.733Z,62.47
2022-12-18T23:15:43.154Z,64.60
2022-12-18T23:18:12.446Z,68.83
2022-12-18T23:20:39.654Z,71.63
2022-12-18T23:23:40.428Z,67.33
2022-12-18T23:26:14.408Z,68.20
2022-12-18T23:29:10.522Z,62.43
2022-12-18T23:31:39.593Z,63.33
2022-12-18T23:34:08.912Z,62.27
2022-12-18T23:36:46.495Z,66.27
2022-12-18T23:39:29.352Z,71.13
2022-12-18T23:42:00.913Z,70.60
2022-12-18T23:44:38.477Z,67.97
2022-12-18T23:47:07.269Z,67.10
2022-12-18T23:49:34.478Z,65.60
2022-12-18T23:52:01.940Z,62.63
2022-12-18T23:54:32.949Z,67.87
2022-12-18T23:57:01.690Z,63.60
2022-12-18T23:59:32.606Z,64.47
